sensor_id;sensor_type;location;lat;lon;timestamp;P1;durP1;ratioP1;P2;durP2;ratioP2
46875;SDS011;32866;50.160;14.768;2023-12-20T00:00:08;2.23;;;2.07;;
46875;SDS011;32866;50.160;14.768;2023-12-20T00:02:34;2.37;;;2.27;;
46875;SDS011;32866;50.160;14.768;2023-12-20T00:07:26;2.10;;;2.00;;
46875;SDS011;32866;50.160;14.768;2023-12-20T00:09:52;2.85;;;2.25;;
46875;SDS011;32866;50.160;14.768;2023-12-20T00:12:18;2.03;;;1.98;;
46875;SDS011;32866;50.160;14.768;2023-12-20T00:14:44;2.72;;;2.63;;
46875;SDS011;32866;50.160;14.768;2023-12-20T00:17:10;3.17;;;2.97;;
46875;SDS011;32866;50.160;14.768;2023-12-20T00:19:36;2.20;;;2.10;;
46875;SDS011;32866;50.160;14.768;2023-12-20T00:22:02;2.20;;;2.10;;
46875;SDS011;32866;50.160;14.768;2023-12-20T00:24:29;2.95;;;2.63;;
46875;SDS011;32866;50.160;14.768;2023-12-20T00:26:55;1.90;;;1.90;;
46875;SDS011;32866;50.160;14.768;2023-12-20T00:29:21;2.10;;;2.00;;
46875;SDS011;32866;50.160;14.768;2023-12-20T00:31:47;2.08;;;1.98;;
46875;SDS011;32866;50.160;14.768;2023-12-20T00:34:13;1.55;;;1.55;;
46875;SDS011;32866;50.160;14.768;2023-12-20T00:36:39;4.22;;;3.15;;
46875;SDS011;32866;50.160;14.768;2023-12-20T00:39:05;1.70;;;1.70;;
46875;SDS011;32866;50.160;14.768;2023-12-20T00:41:32;1.87;;;1.87;;
46875;SDS011;32866;50.160;14.768;2023-12-20T00:43:58;1.80;;;1.80;;
46875;SDS011;32866;50.160;14.768;2023-12-20T00:46:24;2.10;;;2.00;;
46875;SDS011;32866;50.160;14.768;2023-12-20T00:48:50;3.00;;;2.75;;
46875;SDS011;32866;50.160;14.768;2023-12-20T00:51:16;1.90;;;1.90;;
46875;SDS011;32866;50.160;14.768;2023-12-20T00:53:42;1.73;;;1.73;;
46875;SDS011;32866;50.160;14.768;2023-12-20T00:58:34;2.63;;;2.50;;
46875;SDS011;32866;50.160;14.768;2023-12-20T01:01:00;2.53;;;2.42;;
46875;SDS011;32866;50.160;14.768;2023-12-20T01:03:26;2.05;;;1.95;;
46875;SDS011;32866;50.160;14.768;2023-12-20T01:05:52;1.70;;;1.70;;
46875;SDS011;32866;50.160;14.768;2023-12-20T01:08:18;2.35;;;2.25;;
46875;SDS011;32866;50.160;14.768;2023-12-20T01:10:44;1.90;;;1.90;;
46875;SDS011;32866;50.160;14.768;2023-12-20T01:13:12;1.80;;;1.80;;
46875;SDS011;32866;50.160;14.768;2023-12-20T01:15:38;2.15;;;2.08;;
46875;SDS011;32866;50.160;14.768;2023-12-20T01:18:04;1.88;;;1.88;;
46875;SDS011;32866;50.160;14.768;2023-12-20T01:20:30;2.22;;;2.13;;
46875;SDS011;32866;50.160;14.768;2023-12-20T01:25:22;3.00;;;2.90;;
46875;SDS011;32866;50.160;14.768;2023-12-20T01:27:48;1.83;;;1.83;;
46875;SDS011;32866;50.160;14.768;2023-12-20T01:30:14;2.30;;;2.20;;
46875;SDS011;32866;50.160;14.768;2023-12-20T01:32:40;1.70;;;1.70;;
46875;SDS011;32866;50.160;14.768;2023-12-20T01:35:06;2.20;;;2.08;;
46875;SDS011;32866;50.160;14.768;2023-12-20T01:39:58;2.30;;;2.10;;
46875;SDS011;32866;50.160;14.768;2023-12-20T01:42:24;2.92;;;2.83;;
46875;SDS011;32866;50.160;14.768;2023-12-20T01:44:50;2.13;;;2.03;;
46875;SDS011;32866;50.160;14.768;2023-12-20T01:47:16;2.92;;;2.72;;
46875;SDS011;32866;50.160;14.768;2023-12-20T01:49:43;2.33;;;2.22;;
46875;SDS011;32866;50.160;14.768;2023-12-20T01:52:09;1.93;;;1.93;;
46875;SDS011;32866;50.160;14.768;2023-12-20T01:54:35;2.13;;;2.03;;
46875;SDS011;32866;50.160;14.768;2023-12-20T01:59:28;1.80;;;1.80;;
46875;SDS011;32866;50.160;14.768;2023-12-20T02:01:55;2.40;;;2.30;;
46875;SDS011;32866;50.160;14.768;2023-12-20T02:04:21;2.58;;;2.47;;
46875;SDS011;32866;50.160;14.768;2023-12-20T02:06:47;2.10;;;2.00;;
46875;SDS011;32866;50.160;14.768;2023-12-20T02:09:17;2.43;;;2.33;;
46875;SDS011;32866;50.160;14.768;2023-12-20T02:14:09;2.87;;;2.77;;
46875;SDS011;32866;50.160;14.768;2023-12-20T02:16:35;2.15;;;2.05;;
46875;SDS011;32866;50.160;14.768;2023-12-20T02:19:03;1.60;;;1.60;;
46875;SDS011;32866;50.160;14.768;2023-12-20T02:21:31;3.03;;;2.87;;
46875;SDS011;32866;50.160;14.768;2023-12-20T02:23:58;4.20;;;2.13;;
46875;SDS011;32866;50.160;14.768;2023-12-20T02:26:24;2.40;;;2.30;;
46875;SDS011;32866;50.160;14.768;2023-12-20T02:28:50;2.67;;;2.50;;
46875;SDS011;32866;50.160;14.768;2023-12-20T02:31:16;1.85;;;1.83;;
46875;SDS011;32866;50.160;14.768;2023-12-20T02:33:46;2.20;;;2.10;;
46875;SDS011;32866;50.160;14.768;2023-12-20T02:36:12;2.35;;;2.25;;
46875;SDS011;32866;50.160;14.768;2023-12-20T02:38:38;2.88;;;2.72;;
46875;SDS011;32866;50.160;14.768;2023-12-20T02:41:04;2.40;;;2.30;;
46875;SDS011;32866;50.160;14.768;2023-12-20T02:43:30;2.60;;;2.50;;
46875;SDS011;32866;50.160;14.768;2023-12-20T02:45:56;1.77;;;1.77;;
46875;SDS011;32866;50.160;14.768;2023-12-20T02:48:22;1.90;;;1.90;;
46875;SDS011;32866;50.160;14.768;2023-12-20T02:50:48;1.97;;;1.93;;
46875;SDS011;32866;50.160;14.768;2023-12-20T02:53:14;4.13;;;2.85;;
46875;SDS011;32866;50.160;14.768;2023-12-20T02:55:40;2.53;;;2.42;;
46875;SDS011;32866;50.160;14.768;2023-12-20T02:58:06;2.38;;;2.28;;
46875;SDS011;32866;50.160;14.768;2023-12-20T03:00:33;3.25;;;3.13;;
46875;SDS011;32866;50.160;14.768;2023-12-20T03:02:59;1.90;;;1.90;;
46875;SDS011;32866;50.160;14.768;2023-12-20T03:07:51;2.43;;;2.33;;
46875;SDS011;32866;50.160;14.768;2023-12-20T03:10:18;3.57;;;3.47;;
46875;SDS011;32866;50.160;14.768;2023-12-20T03:12:44;3.07;;;2.97;;
46875;SDS011;32866;50.160;14.768;2023-12-20T03:15:10;3.15;;;3.05;;
46875;SDS011;32866;50.160;14.768;2023-12-20T03:17:36;3.40;;;3.30;;
46875;SDS011;32866;50.160;14.768;2023-12-20T03:20:02;4.85;;;4.65;;
46875;SDS011;32866;50.160;14.768;2023-12-20T03:22:29;5.43;;;5.22;;
46875;SDS011;32866;50.160;14.768;2023-12-20T03:24:54;4.03;;;3.88;;
46875;SDS011;32866;50.160;14.768;2023-12-20T03:27:20;5.82;;;5.60;;
46875;SDS011;32866;50.160;14.768;2023-12-20T03:29:46;6.43;;;6.13;;
46875;SDS011;32866;50.160;14.768;2023-12-20T03:32:12;5.32;;;5.05;;
46875;SDS011;32866;50.160;14.768;2023-12-20T03:34:39;6.95;;;6.68;;
46875;SDS011;32866;50.160;14.768;2023-12-20T03:37:05;6.70;;;6.43;;
46875;SDS011;32866;50.160;14.768;2023-12-20T03:39:31;6.80;;;6.50;;
46875;SDS011;32866;50.160;14.768;2023-12-20T03:41:57;6.07;;;5.82;;
46875;SDS011;32866;50.160;14.768;2023-12-20T03:44:23;5.53;;;5.32;;
46875;SDS011;32866;50.160;14.768;2023-12-20T03:46:49;7.78;;;7.40;;
46875;SDS011;32866;50.160;14.768;2023-12-20T03:49:15;6.70;;;6.43;;
46875;SDS011;32866;50.160;14.768;2023-12-20T03:51:41;9.02;;;8.63;;
46875;SDS011;32866;50.160;14.768;2023-12-20T03:54:08;8.97;;;8.63;;
46875;SDS011;32866;50.160;14.768;2023-12-20T03:56:34;8.20;;;7.85;;
46875;SDS011;32866;50.160;14.768;2023-12-20T03:59:00;9.10;;;8.75;;
46875;SDS011;32866;50.160;14.768;2023-12-20T04:01:26;9.35;;;8.90;;
46875;SDS011;32866;50.160;14.768;2023-12-20T05:16:50;12.73;;;12.23;;
46875;SDS011;32866;50.160;14.768;2023-12-20T07:03:58;10.48;;;10.07;;
46875;SDS011;32866;50.160;14.768;2023-12-20T07:06:24;11.15;;;10.70;;
46875;SDS011;32866;50.160;14.768;2023-12-20T07:08:52;11.20;;;10.77;;
46875;SDS011;32866;50.160;14.768;2023-12-20T07:11:18;12.20;;;11.70;;
46875;SDS011;32866;50.160;14.768;2023-12-20T07:13:44;11.43;;;10.98;;
46875;SDS011;32866;50.160;14.768;2023-12-20T07:16:10;10.75;;;10.32;;
46875;SDS011;32866;50.160;14.768;2023-12-20T07:18:37;11.25;;;10.80;;
46875;SDS011;32866;50.160;14.768;2023-12-20T07:21:03;12.00;;;11.47;;
46875;SDS011;32866;50.160;14.768;2023-12-20T07:25:55;6.60;;;6.30;;
46875;SDS011;32866;50.160;14.768;2023-12-20T07:28:21;9.05;;;8.70;;
46875;SDS011;32866;50.160;14.768;2023-12-20T07:30:47;9.80;;;9.40;;
46875;SDS011;32866;50.160;14.768;2023-12-20T07:33:13;8.85;;;8.50;;
46875;SDS011;32866;50.160;14.768;2023-12-20T07:38:05;6.97;;;6.70;;
46875;SDS011;32866;50.160;14.768;2023-12-20T07:40:32;12.30;;;11.83;;
46875;SDS011;32866;50.160;14.768;2023-12-20T07:42:58;11.98;;;11.52;;
46875;SDS011;32866;50.160;14.768;2023-12-20T07:45:24;11.85;;;11.38;;
46875;SDS011;32866;50.160;14.768;2023-12-20T07:47:50;11.48;;;11.02;;
46875;SDS011;32866;50.160;14.768;2023-12-20T07:50:16;10.80;;;10.35;;
46875;SDS011;32866;50.160;14.768;2023-12-20T07:52:42;9.50;;;9.15;;
46875;SDS011;32866;50.160;14.768;2023-12-20T07:55:08;8.93;;;8.57;;
46875;SDS011;32866;50.160;14.768;2023-12-20T07:57:34;9.73;;;9.35;;
46875;SDS011;32866;50.160;14.768;2023-12-20T08:00:00;9.13;;;8.77;;
46875;SDS011;32866;50.160;14.768;2023-12-20T08:02:26;9.27;;;8.93;;
46875;SDS011;32866;50.160;14.768;2023-12-20T08:04:52;9.13;;;8.75;;
46875;SDS011;32866;50.160;14.768;2023-12-20T08:07:18;8.35;;;7.97;;
46875;SDS011;32866;50.160;14.768;2023-12-20T08:09:44;6.13;;;5.90;;
46875;SDS011;32866;50.160;14.768;2023-12-20T08:12:10;6.50;;;6.25;;
46875;SDS011;32866;50.160;14.768;2023-12-20T08:14:37;8.83;;;8.50;;
46875;SDS011;32866;50.160;14.768;2023-12-20T08:17:03;7.20;;;6.90;;
46875;SDS011;32866;50.160;14.768;2023-12-20T08:19:29;5.47;;;5.18;;
46875;SDS011;32866;50.160;14.768;2023-12-20T08:21:55;4.28;;;4.13;;
46875;SDS011;32866;50.160;14.768;2023-12-20T08:24:21;3.05;;;2.95;;
46875;SDS011;32866;50.160;14.768;2023-12-20T08:26:47;2.97;;;2.88;;
46875;SDS011;32866;50.160;14.768;2023-12-20T08:29:13;2.60;;;2.50;;
46875;SDS011;32866;50.160;14.768;2023-12-20T08:31:39;2.73;;;2.63;;
46875;SDS011;32866;50.160;14.768;2023-12-20T08:34:05;2.47;;;2.38;;
46875;SDS011;32866;50.160;14.768;2023-12-20T08:36:31;2.38;;;2.28;;
46875;SDS011;32866;50.160;14.768;2023-12-20T08:38:57;2.38;;;2.28;;
46875;SDS011;32866;50.160;14.768;2023-12-20T08:41:26;2.27;;;2.17;;
46875;SDS011;32866;50.160;14.768;2023-12-20T08:43:52;2.50;;;2.40;;
46875;SDS011;32866;50.160;14.768;2023-12-20T08:46:18;2.58;;;2.47;;
46875;SDS011;32866;50.160;14.768;2023-12-20T08:48:44;2.60;;;2.50;;
46875;SDS011;32866;50.160;14.768;2023-12-20T08:51:10;3.67;;;3.53;;
46875;SDS011;32866;50.160;14.768;2023-12-20T08:53:36;2.50;;;2.40;;
46875;SDS011;32866;50.160;14.768;2023-12-20T08:56:02;2.22;;;2.13;;
46875;SDS011;32866;50.160;14.768;2023-12-20T09:00:54;2.97;;;2.77;;
46875;SDS011;32866;50.160;14.768;2023-12-20T09:03:20;2.30;;;2.20;;
46875;SDS011;32866;50.160;14.768;2023-12-20T09:05:46;2.15;;;2.08;;
46875;SDS011;32866;50.160;14.768;2023-12-20T09:08:12;2.40;;;2.30;;
46875;SDS011;32866;50.160;14.768;2023-12-20T09:10:38;2.60;;;2.50;;
46875;SDS011;32866;50.160;14.768;2023-12-20T09:13:04;2.45;;;2.35;;
46875;SDS011;32866;50.160;14.768;2023-12-20T09:15:30;1.95;;;1.92;;
46875;SDS011;32866;50.160;14.768;2023-12-20T09:17:56;2.33;;;2.22;;
46875;SDS011;32866;50.160;14.768;2023-12-20T09:20:22;2.10;;;2.00;;
46875;SDS011;32866;50.160;14.768;2023-12-20T09:22:49;1.97;;;1.93;;
46875;SDS011;32866;50.160;14.768;2023-12-20T09:25:15;1.90;;;1.90;;
46875;SDS011;32866;50.160;14.768;2023-12-20T09:27:43;1.90;;;1.90;;
46875;SDS011;32866;50.160;14.768;2023-12-20T09:30:09;2.83;;;2.63;;
46875;SDS011;32866;50.160;14.768;2023-12-20T09:35:01;2.10;;;2.00;;
46875;SDS011;32866;50.160;14.768;2023-12-20T09:37:27;1.70;;;1.70;;
46875;SDS011;32866;50.160;14.768;2023-12-20T09:39:54;1.73;;;1.73;;
46875;SDS011;32866;50.160;14.768;2023-12-20T09:42:34;1.70;;;1.70;;
46875;SDS011;32866;50.160;14.768;2023-12-20T09:45:10;2.20;;;2.10;;
46875;SDS011;32866;50.160;14.768;2023-12-20T09:47:40;1.90;;;1.90;;
46875;SDS011;32866;50.160;14.768;2023-12-20T09:50:08;1.77;;;1.77;;
46875;SDS011;32866;50.160;14.768;2023-12-20T09:52:36;2.73;;;2.53;;
46875;SDS011;32866;50.160;14.768;2023-12-20T09:55:03;1.47;;;1.47;;
46875;SDS011;32866;50.160;14.768;2023-12-20T09:57:31;1.67;;;1.67;;
46875;SDS011;32866;50.160;14.768;2023-12-20T09:59:58;1.60;;;1.60;;
46875;SDS011;32866;50.160;14.768;2023-12-20T10:02:24;2.40;;;2.30;;
46875;SDS011;32866;50.160;14.768;2023-12-20T10:04:55;1.70;;;1.70;;
46875;SDS011;32866;50.160;14.768;2023-12-20T10:07:21;1.60;;;1.60;;
46875;SDS011;32866;50.160;14.768;2023-12-20T10:09:48;1.77;;;1.77;;
46875;SDS011;32866;50.160;14.768;2023-12-20T10:12:14;1.70;;;1.70;;
46875;SDS011;32866;50.160;14.768;2023-12-20T10:14:40;1.70;;;1.70;;
46875;SDS011;32866;50.160;14.768;2023-12-20T10:17:06;1.50;;;1.50;;
46875;SDS011;32866;50.160;14.768;2023-12-20T10:19:32;1.55;;;1.55;;
46875;SDS011;32866;50.160;14.768;2023-12-20T10:21:59;1.40;;;1.40;;
46875;SDS011;32866;50.160;14.768;2023-12-20T10:24:28;1.67;;;1.67;;
46875;SDS011;32866;50.160;14.768;2023-12-20T10:27:12;1.47;;;1.47;;
46875;SDS011;32866;50.160;14.768;2023-12-20T10:29:38;1.97;;;1.70;;
46875;SDS011;32866;50.160;14.768;2023-12-20T10:34:51;1.60;;;1.60;;
46875;SDS011;32866;50.160;14.768;2023-12-20T10:37:18;1.60;;;1.60;;
46875;SDS011;32866;50.160;14.768;2023-12-20T10:39:47;1.60;;;1.60;;
46875;SDS011;32866;50.160;14.768;2023-12-20T10:42:16;1.80;;;1.70;;
46875;SDS011;32866;50.160;14.768;2023-12-20T10:44:46;1.40;;;1.40;;
46875;SDS011;32866;50.160;14.768;2023-12-20T10:47:13;1.73;;;1.73;;
46875;SDS011;32866;50.160;14.768;2023-12-20T10:49:39;2.13;;;2.03;;
46875;SDS011;32866;50.160;14.768;2023-12-20T10:52:06;1.70;;;1.70;;
46875;SDS011;32866;50.160;14.768;2023-12-20T10:54:34;2.37;;;2.27;;
46875;SDS011;32866;50.160;14.768;2023-12-20T10:57:00;1.50;;;1.50;;
46875;SDS011;32866;50.160;14.768;2023-12-20T10:59:31;1.70;;;1.60;;
46875;SDS011;32866;50.160;14.768;2023-12-20T11:01:59;1.93;;;1.83;;
46875;SDS011;32866;50.160;14.768;2023-12-20T11:04:31;1.40;;;1.40;;
46875;SDS011;32866;50.160;14.768;2023-12-20T11:07:17;1.60;;;1.60;;
46875;SDS011;32866;50.160;14.768;2023-12-20T11:10:10;1.50;;;1.50;;
46875;SDS011;32866;50.160;14.768;2023-12-20T11:12:48;1.43;;;1.43;;
46875;SDS011;32866;50.160;14.768;2023-12-20T11:15:24;1.67;;;1.67;;
46875;SDS011;32866;50.160;14.768;2023-12-20T11:17:56;1.40;;;1.40;;
46875;SDS011;32866;50.160;14.768;2023-12-20T11:20:23;1.70;;;1.70;;
46875;SDS011;32866;50.160;14.768;2023-12-20T11:22:53;1.60;;;1.60;;
46875;SDS011;32866;50.160;14.768;2023-12-20T11:28:06;1.50;;;1.50;;
46875;SDS011;32866;50.160;14.768;2023-12-20T11:33:13;1.73;;;1.73;;
46875;SDS011;32866;50.160;14.768;2023-12-20T11:35:40;1.60;;;1.60;;
46875;SDS011;32866;50.160;14.768;2023-12-20T11:38:07;1.30;;;1.30;;
46875;SDS011;32866;50.160;14.768;2023-12-20T11:40:34;1.70;;;1.60;;
46875;SDS011;32866;50.160;14.768;2023-12-20T11:43:00;1.40;;;1.40;;
46875;SDS011;32866;50.160;14.768;2023-12-20T11:45:26;1.50;;;1.50;;
46875;SDS011;32866;50.160;14.768;2023-12-20T11:47:53;1.43;;;1.43;;
46875;SDS011;32866;50.160;14.768;2023-12-20T11:50:20;2.23;;;2.13;;
46875;SDS011;32866;50.160;14.768;2023-12-20T11:52:47;1.77;;;1.77;;
46875;SDS011;32866;50.160;14.768;2023-12-20T11:55:14;1.60;;;1.60;;
46875;SDS011;32866;50.160;14.768;2023-12-20T12:00:06;1.57;;;1.57;;
46875;SDS011;32866;50.160;14.768;2023-12-20T12:04:59;1.60;;;1.60;;
46875;SDS011;32866;50.160;14.768;2023-12-20T12:07:25;1.40;;;1.40;;
46875;SDS011;32866;50.160;14.768;2023-12-20T12:09:51;3.00;;;1.80;;
46875;SDS011;32866;50.160;14.768;2023-12-20T12:12:17;1.30;;;1.30;;
46875;SDS011;32866;50.160;14.768;2023-12-20T12:14:45;1.90;;;1.80;;
46875;SDS011;32866;50.160;14.768;2023-12-20T12:17:12;1.60;;;1.60;;
46875;SDS011;32866;50.160;14.768;2023-12-20T12:19:39;1.10;;;1.10;;
46875;SDS011;32866;50.160;14.768;2023-12-20T12:24:36;1.48;;;1.48;;
46875;SDS011;32866;50.160;14.768;2023-12-20T12:27:03;1.20;;;1.20;;
46875;SDS011;32866;50.160;14.768;2023-12-20T12:29:32;1.00;;;1.00;;
46875;SDS011;32866;50.160;14.768;2023-12-20T12:31:59;1.33;;;1.33;;
46875;SDS011;32866;50.160;14.768;2023-12-20T12:34:28;1.10;;;1.10;;
46875;SDS011;32866;50.160;14.768;2023-12-20T12:36:54;1.15;;;1.15;;
46875;SDS011;32866;50.160;14.768;2023-12-20T12:39:21;1.13;;;1.13;;
46875;SDS011;32866;50.160;14.768;2023-12-20T12:41:50;1.50;;;1.40;;
46875;SDS011;32866;50.160;14.768;2023-12-20T12:44:16;2.30;;;1.70;;
46875;SDS011;32866;50.160;14.768;2023-12-20T12:46:44;1.30;;;1.30;;
46875;SDS011;32866;50.160;14.768;2023-12-20T12:49:11;1.40;;;1.40;;
46875;SDS011;32866;50.160;14.768;2023-12-20T12:51:37;2.10;;;2.00;;
46875;SDS011;32866;50.160;14.768;2023-12-20T12:54:03;1.30;;;1.30;;
46875;SDS011;32866;50.160;14.768;2023-12-20T12:56:29;1.20;;;1.20;;
46875;SDS011;32866;50.160;14.768;2023-12-20T12:58:56;1.00;;;1.00;;
46875;SDS011;32866;50.160;14.768;2023-12-20T13:01:22;1.75;;;1.75;;
46875;SDS011;32866;50.160;14.768;2023-12-20T13:03:48;1.30;;;1.30;;
46875;SDS011;32866;50.160;14.768;2023-12-20T13:06:14;1.20;;;1.20;;
46875;SDS011;32866;50.160;14.768;2023-12-20T13:08:40;1.95;;;1.85;;
46875;SDS011;32866;50.160;14.768;2023-12-20T13:11:06;1.48;;;1.48;;
46875;SDS011;32866;50.160;14.768;2023-12-20T13:13:32;1.40;;;1.40;;
46875;SDS011;32866;50.160;14.768;2023-12-20T13:15:58;1.60;;;1.60;;
46875;SDS011;32866;50.160;14.768;2023-12-20T13:18:24;1.27;;;1.27;;
46875;SDS011;32866;50.160;14.768;2023-12-20T13:20:50;1.60;;;1.60;;
46875;SDS011;32866;50.160;14.768;2023-12-20T13:23:16;1.70;;;1.70;;
46875;SDS011;32866;50.160;14.768;2023-12-20T13:25:44;1.43;;;1.43;;
46875;SDS011;32866;50.160;14.768;2023-12-20T13:28:13;1.60;;;1.60;;
46875;SDS011;32866;50.160;14.768;2023-12-20T13:30:39;1.50;;;1.50;;
46875;SDS011;32866;50.160;14.768;2023-12-20T13:33:06;1.50;;;1.50;;
46875;SDS011;32866;50.160;14.768;2023-12-20T13:35:32;1.40;;;1.40;;
46875;SDS011;32866;50.160;14.768;2023-12-20T13:37:59;1.70;;;1.70;;
46875;SDS011;32866;50.160;14.768;2023-12-20T13:40:26;1.63;;;1.63;;
46875;SDS011;32866;50.160;14.768;2023-12-20T13:45:18;2.23;;;2.13;;
46875;SDS011;32866;50.160;14.768;2023-12-20T13:47:44;1.40;;;1.40;;
46875;SDS011;32866;50.160;14.768;2023-12-20T13:50:10;1.58;;;1.58;;
46875;SDS011;32866;50.160;14.768;2023-12-20T13:52:36;1.50;;;1.50;;
46875;SDS011;32866;50.160;14.768;2023-12-20T13:55:02;1.30;;;1.30;;
46875;SDS011;32866;50.160;14.768;2023-12-20T13:57:28;1.98;;;1.88;;
46875;SDS011;32866;50.160;14.768;2023-12-20T13:59:57;1.70;;;1.70;;
46875;SDS011;32866;50.160;14.768;2023-12-20T14:02:23;1.50;;;1.50;;
46875;SDS011;32866;50.160;14.768;2023-12-20T14:04:49;1.30;;;1.30;;
46875;SDS011;32866;50.160;14.768;2023-12-20T14:07:15;1.60;;;1.60;;
46875;SDS011;32866;50.160;14.768;2023-12-20T14:09:41;1.50;;;1.50;;
46875;SDS011;32866;50.160;14.768;2023-12-20T14:12:11;1.50;;;1.50;;
46875;SDS011;32866;50.160;14.768;2023-12-20T14:14:37;1.83;;;1.77;;
46875;SDS011;32866;50.160;14.768;2023-12-20T14:17:03;2.10;;;2.05;;
46875;SDS011;32866;50.160;14.768;2023-12-20T14:19:32;1.50;;;1.50;;
46875;SDS011;32866;50.160;14.768;2023-12-20T14:21:58;1.70;;;1.70;;
46875;SDS011;32866;50.160;14.768;2023-12-20T14:24:27;1.40;;;1.40;;
46875;SDS011;32866;50.160;14.768;2023-12-20T14:26:53;1.70;;;1.70;;
46875;SDS011;32866;50.160;14.768;2023-12-20T14:29:19;1.80;;;1.80;;
46875;SDS011;32866;50.160;14.768;2023-12-20T14:31:45;1.50;;;1.50;;
46875;SDS011;32866;50.160;14.768;2023-12-20T14:34:11;1.60;;;1.60;;
46875;SDS011;32866;50.160;14.768;2023-12-20T14:36:37;1.40;;;1.40;;
46875;SDS011;32866;50.160;14.768;2023-12-20T14:39:03;1.50;;;1.50;;
46875;SDS011;32866;50.160;14.768;2023-12-20T14:41:30;1.40;;;1.40;;
46875;SDS011;32866;50.160;14.768;2023-12-20T14:43:56;1.90;;;1.80;;
46875;SDS011;32866;50.160;14.768;2023-12-20T14:46:22;2.05;;;1.77;;
46875;SDS011;32866;50.160;14.768;2023-12-20T14:48:48;1.45;;;1.45;;
46875;SDS011;32866;50.160;14.768;2023-12-20T14:51:15;1.60;;;1.60;;
46875;SDS011;32866;50.160;14.768;2023-12-20T14:53:41;1.83;;;1.73;;
46875;SDS011;32866;50.160;14.768;2023-12-20T14:56:08;2.33;;;2.23;;
46875;SDS011;32866;50.160;14.768;2023-12-20T14:58:34;1.73;;;1.73;;
46875;SDS011;32866;50.160;14.768;2023-12-20T15:03:36;1.50;;;1.50;;
46875;SDS011;32866;50.160;14.768;2023-12-20T15:06:02;1.55;;;1.55;;
46875;SDS011;32866;50.160;14.768;2023-12-20T15:08:28;2.22;;;2.13;;
46875;SDS011;32866;50.160;14.768;2023-12-20T15:10:54;1.50;;;1.50;;
46875;SDS011;32866;50.160;14.768;2023-12-20T15:13:20;1.60;;;1.60;;
46875;SDS011;32866;50.160;14.768;2023-12-20T15:15:46;1.70;;;1.70;;
46875;SDS011;32866;50.160;14.768;2023-12-20T15:18:12;1.53;;;1.53;;
46875;SDS011;32866;50.160;14.768;2023-12-20T15:20:38;1.80;;;1.80;;
46875;SDS011;32866;50.160;14.768;2023-12-20T15:23:04;1.52;;;1.52;;
46875;SDS011;32866;50.160;14.768;2023-12-20T15:25:32;1.60;;;1.60;;
46875;SDS011;32866;50.160;14.768;2023-12-20T15:27:58;2.38;;;2.28;;
46875;SDS011;32866;50.160;14.768;2023-12-20T15:30:24;2.08;;;1.98;;
46875;SDS011;32866;50.160;14.768;2023-12-20T15:32:50;1.80;;;1.80;;
46875;SDS011;32866;50.160;14.768;2023-12-20T15:35:16;2.30;;;2.15;;
46875;SDS011;32866;50.160;14.768;2023-12-20T15:37:42;2.20;;;2.10;;
46875;SDS011;32866;50.160;14.768;2023-12-20T15:40:09;1.73;;;1.73;;
46875;SDS011;32866;50.160;14.768;2023-12-20T15:42:36;1.70;;;1.70;;
46875;SDS011;32866;50.160;14.768;2023-12-20T15:45:03;2.13;;;2.03;;
46875;SDS011;32866;50.160;14.768;2023-12-20T15:47:30;1.70;;;1.70;;
46875;SDS011;32866;50.160;14.768;2023-12-20T15:49:56;1.90;;;1.90;;
46875;SDS011;32866;50.160;14.768;2023-12-20T15:52:22;2.90;;;2.08;;
46875;SDS011;32866;50.160;14.768;2023-12-20T15:54:48;2.00;;;1.90;;
46875;SDS011;32866;50.160;14.768;2023-12-20T15:57:15;2.20;;;2.10;;
46875;SDS011;32866;50.160;14.768;2023-12-20T16:02:07;2.30;;;2.20;;
46875;SDS011;32866;50.160;14.768;2023-12-20T16:04:42;1.70;;;1.70;;
46875;SDS011;32866;50.160;14.768;2023-12-20T16:07:08;2.03;;;1.93;;
46875;SDS011;32866;50.160;14.768;2023-12-20T16:09:34;1.60;;;1.60;;
46875;SDS011;32866;50.160;14.768;2023-12-20T16:12:00;2.20;;;2.10;;
46875;SDS011;32866;50.160;14.768;2023-12-20T16:14:26;1.73;;;1.73;;
46875;SDS011;32866;50.160;14.768;2023-12-20T16:16:55;1.67;;;1.67;;
46875;SDS011;32866;50.160;14.768;2023-12-20T16:21:47;1.53;;;1.53;;
46875;SDS011;32866;50.160;14.768;2023-12-20T16:24:13;2.45;;;2.35;;
46875;SDS011;32866;50.160;14.768;2023-12-20T16:26:39;1.90;;;1.90;;
46875;SDS011;32866;50.160;14.768;2023-12-20T16:29:06;1.90;;;1.90;;
46875;SDS011;32866;50.160;14.768;2023-12-20T16:31:32;1.83;;;1.83;;
46875;SDS011;32866;50.160;14.768;2023-12-20T16:33:58;2.00;;;2.00;;
46875;SDS011;32866;50.160;14.768;2023-12-20T16:38:51;1.83;;;1.83;;
46875;SDS011;32866;50.160;14.768;2023-12-20T16:41:17;2.40;;;2.30;;
46875;SDS011;32866;50.160;14.768;2023-12-20T16:46:09;2.60;;;2.50;;
46875;SDS011;32866;50.160;14.768;2023-12-20T16:48:35;1.80;;;1.80;;
46875;SDS011;32866;50.160;14.768;2023-12-20T16:51:01;2.22;;;2.13;;
46875;SDS011;32866;50.160;14.768;2023-12-20T16:53:27;1.90;;;1.90;;
46875;SDS011;32866;50.160;14.768;2023-12-20T16:55:53;3.08;;;2.80;;
46875;SDS011;32866;50.160;14.768;2023-12-20T16:58:19;1.92;;;1.92;;
46875;SDS011;32866;50.160;14.768;2023-12-20T17:00:47;1.88;;;1.88;;
46875;SDS011;32866;50.160;14.768;2023-12-20T17:03:13;1.93;;;1.93;;
46875;SDS011;32866;50.160;14.768;2023-12-20T17:05:39;2.22;;;2.13;;
46875;SDS011;32866;50.160;14.768;2023-12-20T17:08:05;2.70;;;2.47;;
46875;SDS011;32866;50.160;14.768;2023-12-20T17:10:31;2.20;;;2.10;;
46875;SDS011;32866;50.160;14.768;2023-12-20T17:12:57;2.22;;;2.13;;
46875;SDS011;32866;50.160;14.768;2023-12-20T17:15:23;1.80;;;1.80;;
46875;SDS011;32866;50.160;14.768;2023-12-20T17:17:49;1.80;;;1.80;;
46875;SDS011;32866;50.160;14.768;2023-12-20T17:20:15;2.80;;;2.70;;
46875;SDS011;32866;50.160;14.768;2023-12-20T17:22:41;1.80;;;1.80;;
46875;SDS011;32866;50.160;14.768;2023-12-20T17:27:43;3.05;;;1.98;;
46875;SDS011;32866;50.160;14.768;2023-12-20T17:30:11;2.00;;;2.00;;
46875;SDS011;32866;50.160;14.768;2023-12-20T17:35:03;1.77;;;1.77;;
46875;SDS011;32866;50.160;14.768;2023-12-20T17:37:29;1.80;;;1.80;;
46875;SDS011;32866;50.160;14.768;2023-12-20T17:39:55;2.17;;;2.08;;
46875;SDS011;32866;50.160;14.768;2023-12-20T17:42:21;1.70;;;1.70;;
46875;SDS011;32866;50.160;14.768;2023-12-20T17:44:47;1.75;;;1.75;;
46875;SDS011;32866;50.160;14.768;2023-12-20T17:47:13;2.15;;;2.05;;
46875;SDS011;32866;50.160;14.768;2023-12-20T17:49:39;2.38;;;2.08;;
46875;SDS011;32866;50.160;14.768;2023-12-20T17:52:05;1.63;;;1.63;;
46875;SDS011;32866;50.160;14.768;2023-12-20T17:54:31;1.77;;;1.73;;
46875;SDS011;32866;50.160;14.768;2023-12-20T17:56:57;2.75;;;2.63;;
46875;SDS011;32866;50.160;14.768;2023-12-20T17:59:25;1.80;;;1.80;;
46875;SDS011;32866;50.160;14.768;2023-12-20T18:01:50;2.20;;;2.10;;
46875;SDS011;32866;50.160;14.768;2023-12-20T18:04:16;2.10;;;2.03;;
46875;SDS011;32866;50.160;14.768;2023-12-20T18:06:46;1.90;;;1.90;;
46875;SDS011;32866;50.160;14.768;2023-12-20T18:09:11;1.65;;;1.65;;
46875;SDS011;32866;50.160;14.768;2023-12-20T18:11:37;1.90;;;1.90;;
46875;SDS011;32866;50.160;14.768;2023-12-20T18:14:04;1.85;;;1.85;;
46875;SDS011;32866;50.160;14.768;2023-12-20T18:16:29;1.83;;;1.83;;
46875;SDS011;32866;50.160;14.768;2023-12-20T18:18:56;2.10;;;2.00;;
46875;SDS011;32866;50.160;14.768;2023-12-20T18:21:21;2.17;;;2.10;;
46875;SDS011;32866;50.160;14.768;2023-12-20T18:23:47;2.33;;;2.25;;
46875;SDS011;32866;50.160;14.768;2023-12-20T18:26:13;3.00;;;2.90;;
46875;SDS011;32866;50.160;14.768;2023-12-20T18:28:39;1.65;;;1.65;;